Time;durP1;ratioP1;P1;durP2;ratioP2;P2;SDS_P1;SDS_P2;PMS_P1;PMS_P2;Temp;Humidity;BMP_temperature;BMP_pressure;BME280_temperature;BME280_humidity;BME280_pressure;Samples;Min_cycle;Max_cycle;Signal;HPM_P1;HPM_P2
2022/12/22 04:49:23;;;;;;;;;;;;;;;;;;944031;31;19975;-76
2022/12/22 04:49:54;;;;;;;;;;;;;;;;;;946779;27;19915;-79
2022/12/22 04:50:25;;;;;;;;;;;;;;;;;;946907;27;19907;-79
2022/12/22 04:51:31;;;;;;;;;;;;;;;;;;946284;27;19998;-79
2022/12/22 04:52:01;;;;;;;;;;;;;;;;;;945603;27;20136;-79
2022/12/22 04:52:32;;;;;;;;;;;;;;;;;;945902;27;19903;-79
2022/12/22 04:53:03;;;;;;;;;;;;;;;;;;944520;27;19904;-79
2022/12/22 04:53:36;;;;;;;;;;;;;;;;;;944960;27;19963;-79
2022/12/22 04:54:06;;;;;;;;;;;;;;;;;;945092;27;19914;-79
2022/12/22 04:54:37;;;;;;;;;;;;;;;;;;946103;27;19910;-79
2022/12/22 04:55:11;;;;;;;;;;;;;;;;;;945383;27;19955;-79
2022/12/22 04:55:44;;;;;;;;;;;;;;;;;;945074;27;19907;-79
2022/12/22 04:56:14;;;;;;;;;;;;;;;;;;943181;27;19914;-79
2022/12/22 04:56:47;;;;;;;;;;;;;;;;;;943941;27;19904;-79
2022/12/22 04:57:18;;;;;;;;;;;;;;;;;;944119;27;19907;-79
2022/12/22 04:57:49;;;;;;;;;;;;;;;;;;941147;27;19910;-78
2022/12/22 04:58:22;;;;;;;;;;;;;;;;;;942697;27;19915;-79
2022/12/22 04:58:53;;;;;;;;;;;;;;;;;;941805;27;19903;-79
2022/12/22 04:59:26;;;;;;;;;;;;;;;;;;943025;27;19997;-78
2022/12/22 04:59:57;;;;;;;;;;;;;;;;;;942731;27;19908;-80
2022/12/22 05:00:27;;;;;;;;;;;;;;;;;;942369;27;19911;-78
2022/12/22 05:01:09;;;;;;;;;;;;;;;;;;942713;27;19915;-79
2022/12/22 05:01:40;;;;;;;;;;;;;;;;;;942948;27;19910;-79
2022/12/22 05:02:11;;;;;;;;;;;;;;;;;;943021;27;20421;-79
2022/12/22 05:02:44;;;;;;;;;;;;;;;;;;943090;27;20276;-80
2022/12/22 05:03:14;;;;;;;;;;;;;;;;;;942312;27;20228;-80
2022/12/22 05:03:47;;;;;;;;;;;;;;;;;;943004;27;19907;-79
2022/12/22 05:04:23;;;;;;;;;;;;;;;;;;942502;27;19903;-79
2022/12/22 05:04:53;;;;;;;;;;;;;;;;;;944005;27;19903;-79
2022/12/22 05:05:24;;;;;;;;;;;;;;;;;;944159;27;19907;-79
2022/12/22 05:05:58;;;;;;;;;;;;;;;;;;944176;27;19961;-80
2022/12/22 05:06:28;;;;;;;;;;;;;;;;;;944204;27;19918;-79
2022/12/22 05:06:59;;;;;;;;;;;;;;;;;;944435;27;19907;-78
2022/12/22 05:07:33;;;;;;;;;;;;;;;;;;944132;27;19911;-78
2022/12/22 05:08:04;;;;;;;;;;;;;;;;;;944078;27;19907;-78
2022/12/22 05:08:34;;;;;;;;;;;;;;;;;;944236;27;20152;-78
2022/12/22 05:09:08;;;;;;;;;;;;;;;;;;943920;27;19918;-79
2022/12/22 05:09:38;;;;;;;;;;;;;;;;;;944031;27;20018;-78
2022/12/22 05:10:10;;;;;;;;;;;;;;;;;;943867;27;19989;-79
2022/12/22 05:10:43;;;;;;;;;;;;;;;;;;944058;27;19908;-79
2022/12/22 05:11:14;;;;;;;;;;;;;;;;;;943673;27;20235;-78
2022/12/22 05:11:45;;;;;;;;;;;;;;;;;;943975;27;20233;-78
2022/12/22 05:13:04;;;;;;;;;;;;;;;;;;943302;27;19904;-79
2022/12/22 05:13:35;;;;;;;;;;;;;;;;;;941810;27;20164;-77
2022/12/22 05:14:06;;;;;;;;;;;;;;;;;;943503;27;19907;-78
2022/12/22 05:14:39;;;;;;;;;;;;;;;;;;944875;27;20244;-80
2022/12/22 05:15:10;;;;;;;;;;;;;;;;;;942674;27;19949;-76
2022/12/22 05:15:41;;;;;;;;;;;;;;;;;;944202;27;19911;-79
2022/12/22 05:16:16;;;;;;;;;;;;;;;;;;945722;27;19908;-77
2022/12/22 05:16:46;;;;;;;;;;;;;;;;;;943491;27;19930;-76
2022/12/22 05:17:17;;;;;;;;;;;;;;;;;;944833;27;19918;-80
2022/12/22 05:17:51;;;;;;;;;;;;;;;;;;945182;27;20183;-80
2022/12/22 05:18:21;;;;;;;;;;;;;;;;;;945532;27;19907;-79
2022/12/22 05:18:52;;;;;;;;;;;;;;;;;;945967;27;20137;-80
2022/12/22 05:19:28;;;;;;;;;;;;;;;;;;946469;27;19911;-79
2022/12/22 05:19:59;;;;;;;;;;;;;;;;;;946115;27;19907;-80
2022/12/22 05:20:29;;;;;;;;;;;;;;;;;;946442;27;19941;-81
2022/12/22 05:21:01;;;;;;;;;;;;;;;;;;946186;27;20169;-78
2022/12/22 05:21:35;;;;;;;;;;;;;;;;;;944587;27;19958;-76
2022/12/22 05:22:05;;;;;;;;;;;;;;;;;;944644;27;19907;-77
2022/12/22 05:22:36;;;;;;;;;;;;;;;;;;944167;27;19908;-77
2022/12/22 05:23:06;;;;;;;;;;;;;;;;;;944127;27;19918;-77
2022/12/22 05:23:41;;;;;;;;;;;;;;;;;;943614;27;19939;-77
2022/12/22 05:24:12;;;;;;;;;;;;;;;;;;943561;27;19908;-77
2022/12/22 05:24:42;;;;;;;;;;;;;;;;;;943436;27;20241;-77
2022/12/22 05:25:15;;;;;;;;;;;;;;;;;;943667;27;20192;-77
2022/12/22 05:25:48;;;;;;;;;;;;;;;;;;943904;27;19911;-77
2022/12/22 05:26:19;;;;;;;;;;;;;;;;;;943602;27;19907;-77
2022/12/22 05:26:49;;;;;;;;;;;;;;;;;;943757;27;19907;-78
2022/12/22 05:27:23;;;;;;;;;;;;;;;;;;944203;27;19926;-77
2022/12/22 05:27:53;;;;;;;;;;;;;;;;;;943987;27;19953;-77
2022/12/22 05:28:24;;;;;;;;;;;;;;;;;;943788;27;20205;-77
2022/12/22 05:28:57;;;;;;;;;;;;;;;;;;944115;27;19958;-76
2022/12/22 05:29:28;;;;;;;;;;;;;;;;;;943779;27;19914;-78
2022/12/22 05:29:58;;;;;;;;;;;;;;;;;;944065;27;19981;-77
2022/12/22 05:30:32;;;;;;;;;;;;;;;;;;944188;27;19916;-77
2022/12/22 05:31:03;;;;;;;;;;;;;;;;;;946285;27;19907;-78
2022/12/22 05:31:36;;;;;;;;;;;;;;;;;;946004;27;19903;-76
2022/12/22 05:32:07;;;;;;;;;;;;;;;;;;945922;27;19930;-77
2022/12/22 05:32:38;;;;;;;;;;;;;;;;;;946984;27;19907;-79
2022/12/22 05:33:09;;;;;;;;;;;;;;;;;;946370;27;19903;-79
2022/12/22 05:34:15;;;;;;;;;;;;;;;;;;947003;27;19942;-79
2022/12/22 05:34:49;;;;;;;;;;;;;;;;;;946540;27;19915;-78
2022/12/22 05:35:19;;;;;;;;;;;;;;;;;;945666;27;20237;-77
2022/12/22 05:35:54;;;;;;;;;;;;;;;;;;943113;27;19918;-75
2022/12/22 05:36:24;;;;;;;;;;;;;;;;;;943972;27;19907;-76
2022/12/22 05:36:55;;;;;;;;;;;;;;;;;;943572;27;20112;-75
2022/12/22 05:37:28;;;;;;;;;;;;;;;;;;943788;27;20240;-77
2022/12/22 05:37:59;;;;;;;;;;;;;;;;;;943766;27;20268;-76
2022/12/22 05:38:32;;;;;;;;;;;;;;;;;;942750;27;19930;-75
2022/12/22 05:39:03;;;;;;;;;;;;;;;;;;943246;27;19943;-75
2022/12/22 05:39:34;;;;;;;;;;;;;;;;;;942295;27;19919;-75
2022/12/22 05:40:08;;;;;;;;;;;;;;;;;;943276;27;19963;-76
2022/12/22 05:40:39;;;;;;;;;;;;;;;;;;943810;27;19907;-76
2022/12/22 05:41:09;;;;;;;;;;;;;;;;;;944107;27;19919;-76
2022/12/22 05:41:43;;;;;;;;;;;;;;;;;;944062;27;20148;-75
2022/12/22 05:42:34;;;;;;;;;;;;;;;;;;942352;27;19907;-75
2022/12/22 05:43:08;;;;;;;;;;;;;;;;;;941704;27;19966;-75
2022/12/22 05:43:39;;;;;;;;;;;;;;;;;;943272;27;20349;-75
2022/12/22 05:44:09;;;;;;;;;;;;;;;;;;943466;27;19907;-76
2022/12/22 05:44:43;;;;;;;;;;;;;;;;;;943458;27;19959;-76
2022/12/22 05:45:15;;;;;;;;;;;;;;;;;;943609;27;19915;-76
2022/12/22 05:45:46;;;;;;;;;;;;;;;;;;943024;27;19926;-79
2022/12/22 05:46:19;;;;;;;;;;;;;;;;;;943539;27;19930;-78
2022/12/22 05:46:51;;;;;;;;;;;;;;;;;;943780;27;19954;-78
2022/12/22 05:47:21;;;;;;;;;;;;;;;;;;944051;27;19907;-77
2022/12/22 05:47:54;;;;;;;;;;;;;;;;;;944081;27;19907;-78
2022/12/22 05:48:25;;;;;;;;;;;;;;;;;;944794;27;19903;-79
2022/12/22 05:48:56;;;;;;;;;;;;;;;;;;944346;27;19907;-77
2022/12/22 05:49:29;;;;;;;;;;;;;;;;;;944284;27;19907;-77
2022/12/22 05:50:02;;;;;;;;;;;;;;;;;;944389;27;20156;-78
2022/12/22 05:50:33;;;;;;;;;;;;;;;;;;944166;27;19903;-78
2022/12/22 05:51:06;;;;;;;;;;;;;;;;;;943783;27;19914;-76
2022/12/22 05:51:37;;;;;;;;;;;;;;;;;;944138;27;19907;-76
2022/12/22 05:52:08;;;;;;;;;;;;;;;;;;943494;27;19911;-77
2022/12/22 05:52:38;;;;;;;;;;;;;;;;;;943906;27;19908;-77
2022/12/22 05:53:12;;;;;;;;;;;;;;;;;;943686;27;19995;-78
2022/12/22 05:53:42;;;;;;;;;;;;;;;;;;943840;27;19924;-77
2022/12/22 05:54:13;;;;;;;;;;;;;;;;;;943640;27;19911;-78
2022/12/22 05:54:46;;;;;;;;;;;;;;;;;;944051;27;20269;-79
2022/12/22 05:55:17;;;;;;;;;;;;;;;;;;943847;27;19903;-78
2022/12/22 05:55:49;;;;;;;;;;;;;;;;;;943651;27;19953;-77
2022/12/22 05:56:22;;;;;;;;;;;;;;;;;;944052;27;19955;-78
2022/12/22 05:56:53;;;;;;;;;;;;;;;;;;944327;27;19914;-81
2022/12/22 05:57:24;;;;;;;;;;;;;;;;;;944562;27;19922;-79
2022/12/22 05:58:00;;;;;;;;;;;;;;;;;;946451;27;20464;-79
2022/12/22 05:58:31;;;;;;;;;;;;;;;;;;946288;27;19919;-78
2022/12/22 05:59:02;;;;;;;;;;;;;;;;;;946050;27;19907;-78
2022/12/22 05:59:35;;;;;;;;;;;;;;;;;;943443;27;19903;-77
2022/12/22 06:00:08;;;;;;;;;;;;;;;;;;943617;27;19914;-77
2022/12/22 06:00:39;;;;;;;;;;;;;;;;;;941972;27;19915;-77
2022/12/22 06:01:12;;;;;;;;;;;;;;;;;;941420;27;20172;-78
2022/12/22 06:01:43;;;;;;;;;;;;;;;;;;942320;27;19907;-77
2022/12/22 06:02:13;;;;;;;;;;;;;;;;;;943007;27;20245;-79
2022/12/22 06:02:46;;;;;;;;;;;;;;;;;;942531;27;19908;-79
2022/12/22 06:03:17;;;;;;;;;;;;;;;;;;942877;27;19954;-78
2022/12/22 06:03:48;;;;;;;;;;;;;;;;;;943516;27;20272;-78
2022/12/22 06:04:21;;;;;;;;;;;;;;;;;;941819;27;19994;-79
2022/12/22 06:04:52;;;;;;;;;;;;;;;;;;941787;27;20156;-79
2022/12/22 06:05:25;;;;;;;;;;;;;;;;;;943167;27;19923;-80
2022/12/22 06:05:59;;;;;;;;;;;;;;;;;;944544;27;19907;-79
2022/12/22 06:06:30;;;;;;;;;;;;;;;;;;944476;27;19907;-78
2022/12/22 06:07:00;;;;;;;;;;;;;;;;;;944452;27;19903;-80
2022/12/22 06:07:34;;;;;;;;;;;;;;;;;;943209;27;19907;-79
2022/12/22 06:08:05;;;;;;;;;;;;;;;;;;942496;27;19932;-80
2022/12/22 06:08:35;;;;;;;;;;;;;;;;;;942228;27;20331;-78
2022/12/22 06:09:09;;;;;;;;;;;;;;;;;;942444;27;19927;-77
2022/12/22 06:09:39;;;;;;;;;;;;;;;;;;942484;27;20213;-79
2022/12/22 06:10:13;;;;;;;;;;;;;;;;;;943009;27;19903;-79
2022/12/22 06:10:43;;;;;;;;;;;;;;;;;;942884;27;19903;-79
2022/12/22 06:11:17;;;;;;;;;;;;;;;;;;942893;27;19907;-79
2022/12/22 06:11:50;;;;;;;;;;;;;;;;;;942928;27;19915;-79
2022/12/22 06:12:20;;;;;;;;;;;;;;;;;;942598;27;20327;-79
2022/12/22 06:12:54;;;;;;;;;;;;;;;;;;942910;27;19907;-79
2022/12/22 06:13:25;;;;;;;;;;;;;;;;;;942824;27;19908;-79
2022/12/22 06:13:55;;;;;;;;;;;;;;;;;;942771;27;20152;-80
2022/12/22 06:14:29;;;;;;;;;;;;;;;;;;942700;27;19955;-78
2022/12/22 06:14:59;;;;;;;;;;;;;;;;;;942879;27;19918;-79
2022/12/22 06:15:33;;;;;;;;;;;;;;;;;;943024;27;20802;-78
2022/12/22 06:16:04;;;;;;;;;;;;;;;;;;942792;27;19907;-78
2022/12/22 06:16:34;;;;;;;;;;;;;;;;;;942415;27;19914;-78
2022/12/22 06:17:08;;;;;;;;;;;;;;;;;;942740;27;19915;-79
2022/12/22 06:17:38;;;;;;;;;;;;;;;;;;942768;27;19908;-79
2022/12/22 06:18:09;;;;;;;;;;;;;;;;;;942412;27;19914;-79
2022/12/22 06:18:42;;;;;;;;;;;;;;;;;;942637;27;19914;-79
2022/12/22 06:19:13;;;;;;;;;;;;;;;;;;942738;27;19942;-79
2022/12/22 06:19:43;;;;;;;;;;;;;;;;;;942820;27;19946;-80
2022/12/22 06:20:16;;;;;;;;;;;;;;;;;;942636;27;20014;-78
2022/12/22 06:20:50;;;;;;;;;;;;;;;;;;942754;27;19918;-79
2022/12/22 06:21:21;;;;;;;;;;;;;;;;;;942632;27;19907;-79
2022/12/22 06:21:54;;;;;;;;;;;;;;;;;;942551;27;19908;-79
2022/12/22 06:22:24;;;;;;;;;;;;;;;;;;942725;27;19908;-77
2022/12/22 06:22:58;;;;;;;;;;;;;;;;;;942917;27;19918;-79
2022/12/22 06:23:28;;;;;;;;;;;;;;;;;;942724;27;19910;-79
2022/12/22 06:23:59;;;;;;;;;;;;;;;;;;942673;27;19908;-79
2022/12/22 06:24:32;;;;;;;;;;;;;;;;;;942935;27;20225;-78
2022/12/22 06:25:03;;;;;;;;;;;;;;;;;;942852;27;19918;-80
2022/12/22 06:25:34;;;;;;;;;;;;;;;;;;942937;27;19960;-77
2022/12/22 06:26:08;;;;;;;;;;;;;;;;;;942841;27;19918;-79
2022/12/22 06:26:38;;;;;;;;;;;;;;;;;;942496;27;19904;-78
2022/12/22 06:27:09;;;;;;;;;;;;;;;;;;942600;27;19903;-79
2022/12/22 06:27:43;;;;;;;;;;;;;;;;;;942565;27;19954;-79
2022/12/22 06:28:13;;;;;;;;;;;;;;;;;;942960;27;19919;-78
2022/12/22 06:28:47;;;;;;;;;;;;;;;;;;942426;27;19903;-79
2022/12/22 06:29:17;;;;;;;;;;;;;;;;;;942360;27;19914;-78
2022/12/22 06:29:48;;;;;;;;;;;;;;;;;;942510;27;19915;-79
2022/12/22 06:30:21;;;;;;;;;;;;;;;;;;942575;27;19955;-79
2022/12/22 06:30:52;;;;;;;;;;;;;;;;;;942631;27;19911;-79
2022/12/22 06:31:23;;;;;;;;;;;;;;;;;;942802;27;19914;-79
2022/12/22 06:31:56;;;;;;;;;;;;;;;;;;942623;27;20265;-79
2022/12/22 06:32:26;;;;;;;;;;;;;;;;;;942403;27;19907;-78
2022/12/22 06:32:58;;;;;;;;;;;;;;;;;;942740;27;19919;-79
2022/12/22 06:33:31;;;;;;;;;;;;;;;;;;943301;27;19907;-78
2022/12/22 06:34:02;;;;;;;;;;;;;;;;;;939584;27;19911;-78
2022/12/22 06:34:33;;;;;;;;;;;;;;;;;;939837;27;19907;-77
2022/12/22 06:35:07;;;;;;;;;;;;;;;;;;941213;27;19910;-77
2022/12/22 06:35:38;;;;;;;;;;;;;;;;;;940498;27;19903;-78
2022/12/22 06:36:11;;;;;;;;;;;;;;;;;;941421;27;19918;-78
2022/12/22 06:36:45;;;;;;;;;;;;;;;;;;940943;27;19907;-78
2022/12/22 06:37:15;;;;;;;;;;;;;;;;;;941460;27;19907;-77
2022/12/22 06:37:49;;;;;;;;;;;;;;;;;;941342;27;19907;-77
2022/12/22 06:38:19;;;;;;;;;;;;;;;;;;941051;27;19923;-76
2022/12/22 06:38:50;;;;;;;;;;;;;;;;;;941113;27;20381;-77
2022/12/22 06:39:23;;;;;;;;;;;;;;;;;;941247;27;19907;-78
2022/12/22 06:39:54;;;;;;;;;;;;;;;;;;941232;27;19908;-78
2022/12/22 06:40:24;;;;;;;;;;;;;;;;;;941158;27;19907;-78
2022/12/22 06:40:58;;;;;;;;;;;;;;;;;;941085;27;19918;-77
2022/12/22 06:43:08;;;;;;;;;;;;;;;;;;941284;27;19963;-78
2022/12/22 06:43:39;;;;;;;;;;;;;;;;;;941035;27;20102;-77
2022/12/22 06:44:10;;;;;;;;;;;;;;;;;;940764;27;19930;-78
2022/12/22 06:44:43;;;;;;;;;;;;;;;;;;941480;27;19911;-78
2022/12/22 06:45:13;;;;;;;;;;;;;;;;;;941262;27;19922;-78
2022/12/22 06:45:44;;;;;;;;;;;;;;;;;;941348;27;19918;-78
2022/12/22 06:46:17;;;;;;;;;;;;;;;;;;941258;27;19914;-78
2022/12/22 06:46:48;;;;;;;;;;;;;;;;;;941150;27;19931;-78
2022/12/22 06:47:19;;;;;;;;;;;;;;;;;;941313;27;19908;-77
2022/12/22 06:47:52;;;;;;;;;;;;;;;;;;941195;27;19959;-78
2022/12/22 06:48:22;;;;;;;;;;;;;;;;;;941335;27;19923;-78
2022/12/22 06:48:53;;;;;;;;;;;;;;;;;;941494;27;19907;-78
2022/12/22 06:49:27;;;;;;;;;;;;;;;;;;943636;27;19936;-76
2022/12/22 06:49:58;;;;;;;;;;;;;;;;;;941651;27;19918;-78
2022/12/22 06:50:28;;;;;;;;;;;;;;;;;;941584;27;19907;-77
2022/12/22 06:51:02;;;;;;;;;;;;;;;;;;939865;27;19904;-78
2022/12/22 06:51:35;;;;;;;;;;;;;;;;;;940786;27;19908;-78
2022/12/22 06:52:06;;;;;;;;;;;;;;;;;;941410;27;19922;-78
2022/12/22 06:52:39;;;;;;;;;;;;;;;;;;941339;27;20251;-78
2022/12/22 06:53:10;;;;;;;;;;;;;;;;;;941015;27;19918;-78
2022/12/22 06:53:41;;;;;;;;;;;;;;;;;;941369;27;19911;-77
2022/12/22 06:54:14;;;;;;;;;;;;;;;;;;941322;27;19907;-77
2022/12/22 06:54:45;;;;;;;;;;;;;;;;;;941279;27;20236;-78
2022/12/22 06:55:18;;;;;;;;;;;;;;;;;;941410;27;19911;-78
2022/12/22 06:55:49;;;;;;;;;;;;;;;;;;941235;27;19907;-77
2022/12/22 06:56:19;;;;;;;;;;;;;;;;;;941415;27;19907;-78
2022/12/22 06:56:53;;;;;;;;;;;;;;;;;;941234;27;19959;-78
2022/12/22 06:57:23;;;;;;;;;;;;;;;;;;941266;27;19918;-78
2022/12/22 06:57:54;;;;;;;;;;;;;;;;;;941253;27;19907;-78
2022/12/22 06:58:27;;;;;;;;;;;;;;;;;;941281;27;20212;-78
2022/12/22 06:58:58;;;;;;;;;;;;;;;;;;941444;27;19915;-78
2022/12/22 06:59:28;;;;;;;;;;;;;;;;;;941313;27;20193;-78
2022/12/22 07:00:01;;;;;;;;;;;;;;;;;;941248;27;20133;-77
2022/12/22 07:00:32;;;;;;;;;;;;;;;;;;941420;27;19918;-78
2022/12/22 07:01:05;;;;;;;;;;;;;;;;;;941323;27;20137;-78
2022/12/22 07:01:36;;;;;;;;;;;;;;;;;;941173;27;19946;-77
2022/12/22 07:02:08;;;;;;;;;;;;;;;;;;941386;27;19919;-77
2022/12/22 07:02:41;;;;;;;;;;;;;;;;;;941147;27;19914;-78
2022/12/22 07:03:12;;;;;;;;;;;;;;;;;;941384;27;19908;-78
2022/12/22 07:03:42;;;;;;;;;;;;;;;;;;941253;27;20209;-79
2022/12/22 07:04:19;;;;;;;;;;;;;;;;;;941384;27;19967;-78
2022/12/22 07:04:50;;;;;;;;;;;;;;;;;;941179;27;20145;-77
2022/12/22 07:05:22;;;;;;;;;;;;;;;;;;941377;27;19922;-78
2022/12/22 07:05:55;;;;;;;;;;;;;;;;;;941232;27;19911;-78
2022/12/22 07:06:26;;;;;;;;;;;;;;;;;;941333;27;19903;-78
2022/12/22 07:06:59;;;;;;;;;;;;;;;;;;941370;27;19903;-77
2022/12/22 07:07:32;;;;;;;;;;;;;;;;;;941455;27;19926;-77
2022/12/22 07:08:03;;;;;;;;;;;;;;;;;;941384;27;20213;-77
2022/12/22 07:08:36;;;;;;;;;;;;;;;;;;941262;27;19907;-78
2022/12/22 07:09:07;;;;;;;;;;;;;;;;;;941366;27;19911;-78
2022/12/22 07:09:37;;;;;;;;;;;;;;;;;;941391;27;19907;-78
2022/12/22 07:10:11;;;;;;;;;;;;;;;;;;941198;27;19971;-78
2022/12/22 07:10:57;;;;;;;;;;;;;;;;;;941413;27;19908;-78
2022/12/22 07:11:27;;;;;;;;;;;;;;;;;;941491;27;19915;-77
2022/12/22 07:12:00;;;;;;;;;;;;;;;;;;941236;27;19915;-78
2022/12/22 07:12:31;;;;;;;;;;;;;;;;;;940838;27;19908;-78
2022/12/22 07:13:17;;;;;;;;;;;;;;;;;;941185;27;19907;-78
2022/12/22 07:13:51;;;;;;;;;;;;;;;;;;941050;27;19966;-78
2022/12/22 07:14:22;;;;;;;;;;;;;;;;;;941161;27;19915;-76
2022/12/22 07:14:52;;;;;;;;;;;;;;;;;;941296;27;19971;-78
2022/12/22 07:15:26;;;;;;;;;;;;;;;;;;940812;27;19907;-78
2022/12/22 07:15:57;;;;;;;;;;;;;;;;;;940943;27;20137;-77
2022/12/22 07:16:30;;;;;;;;;;;;;;;;;;941334;27;19907;-78
2022/12/22 07:17:01;;;;;;;;;;;;;;;;;;941064;27;19942;-76
2022/12/22 07:17:31;;;;;;;;;;;;;;;;;;940995;27;19919;-77
2022/12/22 07:18:05;;;;;;;;;;;;;;;;;;941233;27;19989;-77
2022/12/22 07:18:36;;;;;;;;;;;;;;;;;;941056;27;19914;-78
2022/12/22 07:19:07;;;;;;;;;;;;;;;;;;939723;27;19934;-77
2022/12/22 07:19:40;;;;;;;;;;;;;;;;;;941283;27;19923;-77
2022/12/22 07:20:12;;;;;;;;;;;;;;;;;;941256;27;19908;-78
2022/12/22 07:20:42;;;;;;;;;;;;;;;;;;940973;27;19970;-77
2022/12/22 07:21:16;;;;;;;;;;;;;;;;;;941201;27;19966;-77
2022/12/22 07:21:47;;;;;;;;;;;;;;;;;;941361;27;19918;-77
2022/12/22 07:22:23;;;;;;;;;;;;;;;;;;940999;27;19911;-78
2022/12/22 07:22:54;;;;;;;;;;;;;;;;;;941102;27;20137;-77
2022/12/22 07:23:25;;;;;;;;;;;;;;;;;;941158;27;19907;-77
2022/12/22 07:23:58;;;;;;;;;;;;;;;;;;941112;27;19935;-77
2022/12/22 07:24:29;;;;;;;;;;;;;;;;;;941224;27;19915;-77
2022/12/22 07:25:02;;;;;;;;;;;;;;;;;;941225;27;19914;-78
2022/12/22 07:25:33;;;;;;;;;;;;;;;;;;941022;27;19915;-78
2022/12/22 07:26:04;;;;;;;;;;;;;;;;;;941266;27;19907;-77
2022/12/22 07:26:37;;;;;;;;;;;;;;;;;;941055;27;19908;-77
2022/12/22 07:27:08;;;;;;;;;;;;;;;;;;941178;27;19908;-78
2022/12/22 07:27:40;;;;;;;;;;;;;;;;;;941189;27;19903;-78
2022/12/22 07:28:14;;;;;;;;;;;;;;;;;;941260;27;19962;-77
2022/12/22 07:28:44;;;;;;;;;;;;;;;;;;941258;27;19918;-77
2022/12/22 07:29:15;;;;;;;;;;;;;;;;;;941190;27;19907;-77
2022/12/22 07:29:49;;;;;;;;;;;;;;;;;;941099;27;19960;-78
2022/12/22 07:30:19;;;;;;;;;;;;;;;;;;941040;27;19907;-77
2022/12/22 07:30:50;;;;;;;;;;;;;;;;;;941090;27;19904;-78
2022/12/22 07:31:24;;;;;;;;;;;;;;;;;;940959;27;19963;-77
2022/12/22 07:31:54;;;;;;;;;;;;;;;;;;941102;27;19918;-78
2022/12/22 07:32:27;;;;;;;;;;;;;;;;;;941099;27;19903;-78
2022/12/22 07:32:58;;;;;;;;;;;;;;;;;;941112;27;19919;-77
2022/12/22 07:33:29;;;;;;;;;;;;;;;;;;941040;27;19908;-78
2022/12/22 07:34:02;;;;;;;;;;;;;;;;;;940600;27;19907;-78
2022/12/22 07:34:33;;;;;;;;;;;;;;;;;;941112;27;19911;-78
2022/12/22 07:35:04;;;;;;;;;;;;;;;;;;941116;27;20205;-77
2022/12/22 07:35:37;;;;;;;;;;;;;;;;;;941158;27;19911;-77
2022/12/22 07:36:10;;;;;;;;;;;;;;;;;;941195;27;19915;-78
2022/12/22 07:36:43;;;;;;;;;;;;;;;;;;940972;27;19918;-77
2022/12/22 07:37:13;;;;;;;;;;;;;;;;;;941228;27;20164;-77
2022/12/22 07:37:47;;;;;;;;;;;;;;;;;;941240;27;19908;-78
2022/12/22 07:38:20;;;;;;;;;;;;;;;;;;941210;27;19908;-78
2022/12/22 07:38:51;;;;;;;;;;;;;;;;;;941073;27;19907;-78
2022/12/22 07:39:24;;;;;;;;;;;;;;;;;;941181;27;19912;-83
2022/12/22 07:39:55;;;;;;;;;;;;;;;;;;941001;27;19910;-78
2022/12/22 07:40:25;;;;;;;;;;;;;;;;;;941071;27;19922;-76
2022/12/22 07:40:56;;;;;;;;;;;;;;;;;;940899;27;20209;-77
2022/12/22 07:43:01;;;;;;;;;;;;;;;;;;940805;27;19903;-78
2022/12/22 07:43:32;;;;;;;;;;;;;;;;;;941023;27;19907;-78
2022/12/22 07:44:03;;;;;;;;;;;;;;;;;;941042;27;19916;-77
2022/12/22 07:44:33;;;;;;;;;;;;;;;;;;941404;27;19967;-78
2022/12/22 07:45:07;;;;;;;;;;;;;;;;;;941056;27;19934;-77
2022/12/22 07:45:38;;;;;;;;;;;;;;;;;;940880;27;19904;-78
2022/12/22 07:46:08;;;;;;;;;;;;;;;;;;941166;27;20379;-77
2022/12/22 07:46:41;;;;;;;;;;;;;;;;;;941155;27;19907;-79
2022/12/22 07:47:12;;;;;;;;;;;;;;;;;;941192;27;19907;-78
2022/12/22 07:47:43;;;;;;;;;;;;;;;;;;941232;27;19903;-78
2022/12/22 07:50:34;;;;;;;;;;;;;;;;;;941019;27;20168;-78
2022/12/22 07:51:05;;;;;;;;;;;;;;;;;;941182;27;19927;-77
2022/12/22 07:51:37;;;;;;;;;;;;;;;;;;940923;27;20212;-77
2022/12/22 07:52:10;;;;;;;;;;;;;;;;;;941234;27;20202;-78
2022/12/22 07:52:40;;;;;;;;;;;;;;;;;;940901;27;19911;-76
2022/12/22 07:53:14;;;;;;;;;;;;;;;;;;940835;27;20221;-78
2022/12/22 07:53:47;;;;;;;;;;;;;;;;;;941245;27;19907;-78
2022/12/22 07:54:18;;;;;;;;;;;;;;;;;;941206;27;19903;-77
2022/12/22 07:54:48;;;;;;;;;;;;;;;;;;940998;27;19904;-78
2022/12/22 07:55:22;;;;;;;;;;;;;;;;;;941282;27;19915;-78
2022/12/22 07:55:52;;;;;;;;;;;;;;;;;;941122;27;19903;-78
2022/12/22 07:56:23;;;;;;;;;;;;;;;;;;940642;27;19903;-78
2022/12/22 07:56:56;;;;;;;;;;;;;;;;;;941104;27;19935;-77
2022/12/22 07:57:27;;;;;;;;;;;;;;;;;;941051;27;19915;-78
2022/12/22 07:58:00;;;;;;;;;;;;;;;;;;941353;27;20213;-77
2022/12/22 07:58:31;;;;;;;;;;;;;;;;;;941078;27;19962;-78
2022/12/22 07:59:02;;;;;;;;;;;;;;;;;;941256;27;19967;-78
2022/12/22 07:59:35;;;;;;;;;;;;;;;;;;941166;27;20169;-78
2022/12/22 08:00:06;;;;;;;;;;;;;;;;;;940921;27;19907;-78
2022/12/22 08:00:37;;;;;;;;;;;;;;;;;;941186;27;19911;-78
2022/12/22 08:01:10;;;;;;;;;;;;;;;;;;941174;27;19903;-78
2022/12/22 08:01:41;;;;;;;;;;;;;;;;;;940931;27;19903;-77
2022/12/22 08:02:12;;;;;;;;;;;;;;;;;;941162;27;19908;-77
2022/12/22 08:02:49;;;;;;;;;;;;;;;;;;941111;27;20193;-79
2022/12/22 08:03:20;;;;;;;;;;;;;;;;;;941120;27;19907;-79
2022/12/22 08:03:51;;;;;;;;;;;;;;;;;;941199;27;19919;-78
2022/12/22 08:04:24;;;;;;;;;;;;;;;;;;941050;27;20189;-78
2022/12/22 08:04:54;;;;;;;;;;;;;;;;;;941248;27;19918;-77
2022/12/22 08:05:28;;;;;;;;;;;;;;;;;;941379;27;19922;-79
2022/12/22 08:06:02;;;;;;;;;;;;;;;;;;941194;27;19918;-77
2022/12/22 08:06:35;;;;;;;;;;;;;;;;;;940772;27;20239;-78
2022/12/22 08:07:06;;;;;;;;;;;;;;;;;;940913;27;19950;-78
2022/12/22 08:07:39;;;;;;;;;;;;;;;;;;941007;27;19907;-78
2022/12/22 08:08:10;;;;;;;;;;;;;;;;;;941185;27;19915;-77
2022/12/22 08:08:46;;;;;;;;;;;;;;;;;;941250;27;20217;-77
2022/12/22 08:09:20;;;;;;;;;;;;;;;;;;941103;27;19904;-77
2022/12/22 08:09:50;;;;;;;;;;;;;;;;;;941164;27;19979;-78
2022/12/22 08:10:24;;;;;;;;;;;;;;;;;;941043;27;19907;-77
2022/12/22 08:10:54;;;;;;;;;;;;;;;;;;941194;27;19908;-78
2022/12/22 08:11:27;;;;;;;;;;;;;;;;;;940948;27;19943;-78
2022/12/22 08:11:58;;;;;;;;;;;;;;;;;;941107;27;20140;-77
2022/12/22 08:12:31;;;;;;;;;;;;;;;;;;941117;27;19903;-78
2022/12/22 08:13:02;;;;;;;;;;;;;;;;;;941015;27;19958;-78
2022/12/22 08:13:35;;;;;;;;;;;;;;;;;;941108;27;19918;-77
2022/12/22 08:14:06;;;;;;;;;;;;;;;;;;940828;27;19918;-77
2022/12/22 08:14:39;;;;;;;;;;;;;;;;;;941051;27;20145;-78
2022/12/22 08:15:11;;;;;;;;;;;;;;;;;;941016;27;20568;-78
2022/12/22 08:15:41;;;;;;;;;;;;;;;;;;941288;27;19954;-78
2022/12/22 08:16:15;;;;;;;;;;;;;;;;;;940814;27;19999;-77
2022/12/22 08:16:46;;;;;;;;;;;;;;;;;;941124;27;19918;-78
2022/12/22 08:17:16;;;;;;;;;;;;;;;;;;940994;27;20244;-77
2022/12/22 08:17:50;;;;;;;;;;;;;;;;;;941158;27;20272;-77
2022/12/22 08:18:20;;;;;;;;;;;;;;;;;;941025;27;19915;-77
2022/12/22 08:18:51;;;;;;;;;;;;;;;;;;941058;27;19918;-77
2022/12/22 08:19:24;;;;;;;;;;;;;;;;;;941164;27;20229;-78
2022/12/22 08:19:55;;;;;;;;;;;;;;;;;;940806;27;19907;-78
2022/12/22 08:20:26;;;;;;;;;;;;;;;;;;941276;27;19908;-77
2022/12/22 08:20:59;;;;;;;;;;;;;;;;;;939824;27;19908;-78
2022/12/22 08:21:30;;;;;;;;;;;;;;;;;;941011;27;19908;-78
2022/12/22 08:22:03;;;;;;;;;;;;;;;;;;940834;27;19903;-78
2022/12/22 08:22:34;;;;;;;;;;;;;;;;;;941217;27;19907;-77
2022/12/22 08:23:07;;;;;;;;;;;;;;;;;;941139;27;19907;-78
2022/12/22 08:23:37;;;;;;;;;;;;;;;;;;940831;27;20267;-77
2022/12/22 08:24:14;;;;;;;;;;;;;;;;;;941148;27;19907;-78
2022/12/22 08:24:44;;;;;;;;;;;;;;;;;;941344;27;19907;-77
2022/12/22 08:25:17;;;;;;;;;;;;;;;;;;941157;27;19903;-78
2022/12/22 08:25:51;;;;;;;;;;;;;;;;;;941126;27;19928;-78
2022/12/22 08:26:26;;;;;;;;;;;;;;;;;;941081;27;20249;-77
2022/12/22 08:26:59;;;;;;;;;;;;;;;;;;941109;27;19907;-77
2022/12/22 08:27:32;;;;;;;;;;;;;;;;;;941107;27;19963;-77
2022/12/22 08:28:05;;;;;;;;;;;;;;;;;;940523;27;19958;-77
2022/12/22 08:28:38;;;;;;;;;;;;;;;;;;940753;27;19907;-77
2022/12/22 08:29:13;;;;;;;;;;;;;;;;;;940813;27;19919;-78
2022/12/22 08:29:45;;;;;;;;;;;;;;;;;;940869;27;19907;-78
2022/12/22 08:30:19;;;;;;;;;;;;;;;;;;941062;27;19930;-78
2022/12/22 08:30:49;;;;;;;;;;;;;;;;;;941079;27;19907;-78
2022/12/22 08:31:20;;;;;;;;;;;;;;;;;;941131;27;19907;-77
2022/12/22 08:31:54;;;;;;;;;;;;;;;;;;941117;27;19908;-78
2022/12/22 08:32:24;;;;;;;;;;;;;;;;;;941022;27;19907;-77
2022/12/22 08:32:55;;;;;;;;;;;;;;;;;;941169;27;19904;-78
2022/12/22 08:33:28;;;;;;;;;;;;;;;;;;940502;27;20246;-78
2022/12/22 08:34:01;;;;;;;;;;;;;;;;;;940927;27;19918;-78
2022/12/22 08:34:34;;;;;;;;;;;;;;;;;;941100;27;19994;-78
2022/12/22 08:35:06;;;;;;;;;;;;;;;;;;941205;27;20263;-78
2022/12/22 08:35:39;;;;;;;;;;;;;;;;;;941274;27;19907;-77
2022/12/22 08:36:10;;;;;;;;;;;;;;;;;;941641;27;19903;-78
2022/12/22 08:36:43;;;;;;;;;;;;;;;;;;941154;27;19918;-79
2022/12/22 08:37:18;;;;;;;;;;;;;;;;;;939581;27;20190;-78
2022/12/22 08:37:49;;;;;;;;;;;;;;;;;;941258;27;19918;-78
2022/12/22 08:38:20;;;;;;;;;;;;;;;;;;941096;27;19959;-79
2022/12/22 08:38:54;;;;;;;;;;;;;;;;;;941255;27;20153;-79